createdAt,value
2022-11-20T00:00:43.440Z,94.81
2022-11-20T00:06:45.333Z,94.15
2022-11-20T00:12:47.236Z,95.11
2022-11-20T00:19:02.255Z,94.64
2022-11-20T00:25:04.641Z,95.09
2022-11-20T00:31:31.647Z,95.00
2022-11-20T00:37:33.598Z,94.92
2022-11-20T00:43:44.002Z,94.73
2022-11-20T00:49:45.934Z,94.25
2022-11-20T00:56:06.080Z,93.99
2022-11-20T01:02:08.042Z,93.89
2022-11-20T01:08:10.075Z,93.87
2022-11-20T01:14:19.643Z,93.92
2022-11-20T01:20:21.575Z,94.40
2022-11-20T01:26:34.335Z,94.86
2022-11-20T01:32:36.250Z,94.13
2022-11-20T01:38:38.854Z,93.96
2022-11-20T01:44:57.413Z,94.89
2022-11-20T01:51:00.630Z,95.20
2022-11-20T01:57:07.179Z,94.18
2022-11-20T02:03:14.904Z,94.88
2022-11-20T02:09:17.049Z,94.41
2022-11-20T02:15:19.029Z,95.21
2022-11-20T02:21:29.605Z,94.97
2022-11-20T02:27:31.549Z,94.57
2022-11-20T02:33:33.444Z,94.24
2022-11-20T02:39:48.368Z,94.10
2022-11-20T02:45:53.119Z,94.38
2022-11-20T02:51:55.087Z,93.85
2022-11-20T02:57:57.186Z,93.37
2022-11-20T03:03:59.113Z,93.80
2022-11-20T03:10:01.045Z,93.67
2022-11-20T03:16:15.609Z,93.24
2022-11-20T03:22:17.506Z,93.80
2022-11-20T03:28:19.406Z,93.44
2022-11-20T03:34:21.445Z,94.26
2022-11-20T03:40:23.325Z,94.14
2022-11-20T03:46:26.802Z,93.87
2022-11-20T03:58:45.135Z,93.61
2022-11-20T04:04:47.125Z,93.51
2022-11-20T04:10:58.145Z,93.92
2022-11-20T04:17:00.070Z,93.62
2022-11-20T04:23:01.966Z,93.28
2022-11-20T04:29:06.657Z,93.41
2022-11-20T04:35:16.181Z,93.35
2022-11-20T04:41:21.595Z,94.23
2022-11-20T04:47:24.189Z,94.43
2022-11-20T04:53:32.416Z,94.33
2022-11-20T04:59:34.309Z,94.74
2022-11-20T05:05:36.550Z,94.07
2022-11-20T05:11:38.503Z,94.44
2022-11-20T05:17:40.399Z,94.19
2022-11-20T05:23:43.501Z,93.94
2022-11-20T05:29:45.443Z,93.78
2022-11-20T05:35:47.550Z,93.68
2022-11-20T05:42:12.687Z,93.06
2022-11-20T05:48:14.601Z,92.33
2022-11-20T05:54:28.656Z,93.04
2022-11-20T06:00:30.608Z,92.48
2022-11-20T06:06:40.831Z,92.57
2022-11-20T06:12:42.828Z,92.58
2022-11-20T06:18:45.241Z,91.60
2022-11-20T06:24:47.370Z,91.60
2022-11-20T06:30:49.300Z,92.17
2022-11-20T06:36:51.258Z,91.86
2022-11-20T06:42:55.839Z,92.20
2022-11-20T06:48:59.032Z,91.89
2022-11-20T06:55:13.748Z,92.28
2022-11-20T07:01:16.327Z,92.34
2022-11-20T07:07:18.326Z,92.49
2022-11-20T07:13:20.279Z,92.84
2022-11-20T07:19:22.428Z,92.22
2022-11-20T07:25:26.365Z,92.02
2022-11-20T07:31:28.261Z,91.58
2022-11-20T07:37:30.181Z,92.12
2022-11-20T07:43:34.834Z,91.70
2022-11-20T07:49:40.333Z,91.58
2022-11-20T07:55:42.205Z,91.31
2022-11-20T08:01:44.439Z,91.15
2022-11-20T08:07:46.458Z,90.96
2022-11-20T08:14:07.357Z,90.74
2022-11-20T08:20:10.254Z,90.21
2022-11-20T08:26:12.277Z,91.13
2022-11-20T08:32:14.217Z,91.45
2022-11-20T08:38:16.123Z,90.63
2022-11-20T08:44:18.454Z,91.45
2022-11-20T08:50:24.217Z,91.15
2022-11-20T08:56:26.508Z,91.18
2022-11-20T09:02:28.543Z,91.03
2022-11-20T09:08:40.594Z,90.81
2022-11-20T09:14:43.153Z,90.79
2022-11-20T09:20:48.320Z,90.44
2022-11-20T09:26:50.318Z,90.30
2022-11-20T09:33:04.784Z,89.76
2022-11-20T09:39:06.695Z,89.03
2022-11-20T09:45:45.427Z,89.08
2022-11-20T09:52:55.175Z,88.97
2022-11-20T09:59:15.873Z,88.39
2022-11-20T10:05:31.153Z,88.10
2022-11-20T10:12:06.835Z,88.03
2022-11-20T10:18:32.723Z,88.26
2022-11-20T10:25:11.547Z,88.18
2022-11-20T10:31:34.082Z,87.97
2022-11-20T10:37:42.124Z,88.24
2022-11-20T10:44:06.554Z,89.23
2022-11-20T10:50:22.284Z,88.70
2022-11-20T10:56:48.319Z,88.23
2022-11-20T11:02:58.387Z,86.90
2022-11-20T11:09:11.480Z,84.21
2022-11-20T11:15:27.693Z,82.08
2022-11-20T11:21:42.208Z,82.53
2022-11-20T11:27:49.080Z,82.79
2022-11-20T11:33:52.348Z,81.31
2022-11-20T11:40:16.402Z,81.10
2022-11-20T11:46:26.957Z,82.32
2022-11-20T11:52:30.637Z,82.32
2022-11-20T11:58:46.194Z,82.34
2022-11-20T12:04:58.678Z,81.81
2022-11-20T12:11:17.885Z,81.14
2022-11-20T12:17:20.065Z,81.66
2022-11-20T12:23:51.005Z,79.64
2022-11-20T12:30:12.414Z,79.88
2022-11-20T12:36:19.938Z,77.10
2022-11-20T12:43:14.822Z,72.97
2022-11-20T12:49:48.256Z,72.96
2022-11-20T12:56:40.280Z,74.23
2022-11-20T13:03:00.187Z,75.33
2022-11-20T13:09:03.219Z,76.92
2022-11-20T13:15:49.166Z,77.51
2022-11-20T13:21:51.900Z,78.69
2022-11-20T13:28:07.842Z,76.08
2022-11-20T13:34:34.078Z,70.25
2022-11-20T13:40:56.392Z,70.78
2022-11-20T13:46:58.589Z,71.91
2022-11-20T13:53:38.168Z,75.51
2022-11-20T14:00:18.918Z,77.91
2022-11-20T14:06:35.697Z,79.44
2022-11-20T14:12:40.205Z,81.97
2022-11-20T14:18:42.145Z,82.08
2022-11-20T14:24:44.116Z,83.16
2022-11-20T14:30:49.318Z,84.12
2022-11-20T14:36:59.843Z,85.62
2022-11-20T14:43:29.639Z,87.13
2022-11-20T14:49:32.992Z,88.15
2022-11-20T14:55:38.379Z,88.45
2022-11-20T15:02:11.809Z,88.92
2022-11-20T15:08:15.228Z,89.49
2022-11-20T15:14:17.160Z,90.41
2022-11-20T15:20:21.346Z,90.94
2022-11-20T15:26:27.690Z,91.86
2022-11-20T15:32:29.641Z,92.89
2022-11-20T15:38:31.585Z,92.41
2022-11-20T15:44:33.472Z,92.33
2022-11-20T15:50:42.063Z,92.73
2022-11-20T15:56:44.140Z,94.68
2022-11-20T16:02:46.771Z,94.43
2022-11-20T16:08:48.714Z,94.00
2022-11-20T16:15:13.719Z,94.17
2022-11-20T16:21:15.927Z,94.30
2022-11-20T16:27:17.815Z,93.94
2022-11-20T16:33:19.828Z,95.05
2022-11-20T16:39:23.944Z,94.32
2022-11-20T16:45:34.065Z,94.87
2022-11-20T16:51:36.649Z,94.29
2022-11-20T16:57:38.883Z,94.35
2022-11-20T17:03:53.815Z,93.81
2022-11-20T17:09:55.939Z,93.99
2022-11-20T17:16:16.143Z,93.84
2022-11-20T17:22:18.078Z,93.96
2022-11-20T17:28:19.987Z,92.18
2022-11-20T17:34:34.080Z,91.34
2022-11-20T17:40:35.990Z,90.89
2022-11-20T17:46:38.444Z,91.16
2022-11-20T17:58:57.681Z,90.84
2022-11-20T18:04:59.599Z,91.14
2022-11-20T18:11:12.540Z,90.85
2022-11-20T18:17:16.282Z,90.39
2022-11-20T18:23:18.213Z,89.63
2022-11-20T18:29:20.130Z,88.99
2022-11-20T18:35:23.172Z,88.05
2022-11-20T18:41:47.223Z,88.51
2022-11-20T18:47:58.395Z,89.04
2022-11-20T18:54:01.209Z,89.04
2022-11-20T19:00:09.183Z,88.72
2022-11-20T19:06:14.599Z,88.27
2022-11-20T19:12:26.756Z,88.27
2022-11-20T19:18:28.864Z,88.25
2022-11-20T19:24:30.811Z,88.07
2022-11-20T19:30:33.471Z,87.81
2022-11-20T19:36:45.323Z,87.59
2022-11-20T19:42:47.279Z,88.70
2022-11-20T19:48:49.344Z,88.71
2022-11-20T19:54:52.458Z,89.21
2022-11-20T20:00:55.125Z,89.51
2022-11-20T20:06:57.119Z,89.10
2022-11-20T20:13:02.145Z,89.57
2022-11-20T20:19:05.594Z,90.60
2022-11-20T20:25:07.994Z,91.03
2022-11-20T20:31:16.618Z,92.24
2022-11-20T20:37:28.347Z,93.58
2022-11-20T20:43:59.211Z,94.40
2022-11-20T20:50:08.994Z,94.69
2022-11-20T20:56:10.996Z,95.68
2022-11-20T21:02:13.221Z,96.08
2022-11-20T21:08:26.461Z,96.03
2022-11-20T21:14:28.399Z,95.15
2022-11-20T21:20:49.400Z,95.69
2022-11-20T21:26:52.336Z,95.67
2022-11-20T21:32:56.511Z,96.06
2022-11-20T21:39:02.530Z,95.13
2022-11-20T21:45:04.859Z,95.80
2022-11-20T21:51:13.317Z,95.49
2022-11-20T21:57:15.294Z,95.75
2022-11-20T22:03:40.008Z,95.20
2022-11-20T22:09:41.928Z,95.18
2022-11-20T22:16:00.265Z,95.07
2022-11-20T22:22:20.404Z,95.16
2022-11-20T22:28:22.375Z,96.14
2022-11-20T22:34:24.799Z,96.43
2022-11-20T22:40:26.944Z,96.83
2022-11-20T22:46:43.407Z,96.68
2022-11-20T22:52:45.323Z,96.59
2022-11-20T22:58:51.289Z,95.94
2022-11-20T23:04:53.262Z,96.97
2022-11-20T23:11:03.952Z,96.40
2022-11-20T23:17:37.914Z,96.16
2022-11-20T23:23:41.141Z,96.65
2022-11-20T23:29:43.092Z,96.25
2022-11-20T23:35:47.794Z,97.52
2022-11-20T23:41:49.718Z,97.28
2022-11-20T23:47:51.663Z,97.52
2022-11-20T23:53:53.614Z,97.90
2022-11-20T23:59:56.552Z,97.48
